Terminal Aerodrome Forecast
Issued by NWS Milwaukee/Sullivan, WI

Home | Current Version | Previous Version | Text Only | Print | Product List | Glossary On
Versions: 1 2 3 4 5 6 7 8 9 10 11 12 13 14 15 16 17 18 19 20 21 22 23 24 25 26 27 28 29 30 31 32 33 34 35 36
000
FTUS43 KMKX 171433 AAB
TAFMKE
TAF AMD
KMKE 171433Z 1715/1818 20012G19KT P6SM BKN040
     FM171900 24010G17KT P6SM SCT040 BKN250
     FM180300 32005KT P6SM BKN200
     FM180600 34004KT P6SM SCT250=

USA.gov is the U.S. government's official web portal to all federal, state and local government web resources and services.